createdAt,value
2023-01-19T00:00:06.153Z,97308.59
2023-01-19T00:02:54.953Z,97311.84
2023-01-19T00:05:22.116Z,97314.28
2023-01-19T00:07:49.261Z,97309.66
2023-01-19T00:10:16.384Z,97316.84
2023-01-19T00:12:43.481Z,97313.19
2023-01-19T00:15:10.821Z,97323.25
2023-01-19T00:17:40.938Z,97318.91
2023-01-19T00:20:09.478Z,97320.91
2023-01-19T00:22:36.591Z,97319.25
2023-01-19T00:25:03.774Z,97314.03
2023-01-19T00:27:34.894Z,97316.69
2023-01-19T00:30:02.244Z,97312.06
2023-01-19T00:32:29.352Z,97309.53
2023-01-19T00:34:56.140Z,97307.09
2023-01-19T00:37:23.316Z,97302.50
2023-01-19T00:39:50.167Z,97302.72
2023-01-19T00:42:35.587Z,97304.69
2023-01-19T00:45:02.344Z,97299.19
2023-01-19T00:47:29.478Z,97302.25
2023-01-19T00:49:56.479Z,97302.84
2023-01-19T00:52:23.496Z,97302.84
2023-01-19T00:54:50.315Z,97301.75
2023-01-19T00:57:19.177Z,97305.41
2023-01-19T00:59:45.934Z,97297.75
2023-01-19T01:02:13.240Z,97303.34
2023-01-19T01:04:40.137Z,97303.06
2023-01-19T01:07:07.253Z,97299.34
2023-01-19T01:09:34.004Z,97292.28
2023-01-19T01:12:01.140Z,97293.47
2023-01-19T01:14:27.953Z,97290.94
2023-01-19T01:16:55.165Z,97282.69
2023-01-19T01:19:21.956Z,97287.28
2023-01-19T01:21:49.119Z,97283.66
2023-01-19T01:24:16.349Z,97286.34
2023-01-19T01:26:43.453Z,97288.00
2023-01-19T01:29:10.253Z,97287.63
2023-01-19T01:31:37.364Z,97302.69
2023-01-19T01:34:04.451Z,97295.19
2023-01-19T01:36:33.466Z,97307.47
2023-01-19T01:39:00.547Z,97319.09
2023-01-19T01:41:27.715Z,97318.97
2023-01-19T01:43:58.662Z,97316.75
2023-01-19T01:46:26.521Z,97316.75
2023-01-19T01:49:13.819Z,97327.31
2023-01-19T01:51:42.105Z,97336.16
2023-01-19T01:54:19.009Z,97335.66
2023-01-19T01:56:51.514Z,97335.94
2023-01-19T01:59:29.349Z,97327.94
2023-01-19T02:02:16.064Z,97319.66
2023-01-19T02:04:54.279Z,97312.63
2023-01-19T02:07:48.842Z,97312.63
2023-01-19T02:10:34.160Z,97320.66
2023-01-19T02:13:22.425Z,97328.78
2023-01-19T02:15:51.055Z,97339.56
2023-01-19T02:18:18.840Z,97342.00
2023-01-19T02:20:53.870Z,97340.28
2023-01-19T02:23:27.298Z,97340.41
2023-01-19T02:25:54.047Z,97341.00
2023-01-19T02:28:21.195Z,97338.34
2023-01-19T02:30:47.948Z,97346.59
2023-01-19T02:33:15.057Z,97341.38
2023-01-19T02:35:41.890Z,97337.13
2023-01-19T02:38:08.989Z,97346.50
2023-01-19T02:40:35.798Z,97351.69
2023-01-19T02:43:03.410Z,97358.84
2023-01-19T02:45:30.337Z,97359.84
2023-01-19T02:47:57.397Z,97357.28
2023-01-19T02:50:39.426Z,97353.28
2023-01-19T02:53:14.370Z,97358.50
2023-01-19T02:55:41.156Z,97360.06
2023-01-19T02:58:12.046Z,97354.34
2023-01-19T03:00:52.418Z,97359.84
2023-01-19T03:03:27.774Z,97355.84
2023-01-19T03:06:14.845Z,97355.72
2023-01-19T03:08:48.000Z,97351.47
2023-01-19T03:11:15.024Z,97356.78
2023-01-19T03:13:44.025Z,97355.94
2023-01-19T03:16:29.738Z,97359.34
2023-01-19T03:19:00.062Z,97361.06
2023-01-19T03:21:27.618Z,97372.59
2023-01-19T03:23:55.997Z,97370.13
2023-01-19T03:26:26.250Z,97372.09
2023-01-19T03:28:53.360Z,97378.16
2023-01-19T03:31:22.969Z,97374.53
2023-01-19T03:33:51.958Z,97385.53
2023-01-19T03:36:22.918Z,97390.53
2023-01-19T03:38:50.206Z,97389.03
2023-01-19T03:41:17.867Z,97387.88
2023-01-19T03:43:44.949Z,97385.53
2023-01-19T03:46:11.820Z,97387.88
2023-01-19T03:48:39.001Z,97402.06
2023-01-19T03:51:06.775Z,97402.16
2023-01-19T03:53:33.893Z,97408.59
2023-01-19T03:56:00.725Z,97417.22
2023-01-19T03:58:28.354Z,97413.94
2023-01-19T04:00:55.228Z,97409.56
2023-01-19T04:03:22.309Z,97417.34
2023-01-19T04:05:49.331Z,97423.41
2023-01-19T04:08:16.449Z,97421.84
2023-01-19T04:10:43.220Z,97411.16
2023-01-19T04:13:10.568Z,97412.00
2023-01-19T04:15:37.387Z,97423.00
2023-01-19T04:18:05.407Z,97409.44
2023-01-19T04:20:32.152Z,97405.81
2023-01-19T04:23:00.059Z,97408.72
2023-01-19T04:25:27.908Z,97411.28
2023-01-19T04:27:55.273Z,97424.63
2023-01-19T04:30:22.684Z,97427.91
2023-01-19T04:32:49.811Z,97429.06
2023-01-19T04:35:17.054Z,97429.94
2023-01-19T04:37:45.056Z,97441.69
2023-01-19T04:40:12.205Z,97447.03
2023-01-19T04:42:39.344Z,97458.56
2023-01-19T04:45:06.543Z,97453.09
2023-01-19T04:47:33.656Z,97448.97
2023-01-19T04:50:00.376Z,97431.88
2023-01-19T04:52:35.090Z,97443.75
2023-01-19T04:55:02.975Z,97450.69
2023-01-19T04:57:30.485Z,97444.34
2023-01-19T04:59:57.848Z,97445.47
2023-01-19T05:02:25.164Z,97451.97
2023-01-19T05:04:52.026Z,97450.28
2023-01-19T05:07:19.114Z,97456.03
2023-01-19T05:09:45.838Z,97458.19
2023-01-19T05:12:12.887Z,97457.31
2023-01-19T05:14:39.635Z,97449.41
2023-01-19T05:17:06.727Z,97455.25
2023-01-19T05:19:33.476Z,97454.53
2023-01-19T05:22:00.527Z,97450.69
2023-01-19T05:24:27.251Z,97445.78
2023-01-19T05:26:54.344Z,97444.69
2023-01-19T05:29:21.183Z,97443.13
2023-01-19T05:31:48.253Z,97441.28
2023-01-19T05:34:15.305Z,97443.22
2023-01-19T05:36:42.433Z,97438.00
2023-01-19T05:39:09.231Z,97441.91
2023-01-19T05:41:36.268Z,97448.22
2023-01-19T05:44:03.095Z,97454.75
2023-01-19T05:46:30.170Z,97456.28
2023-01-19T05:48:57.018Z,97470.28
2023-01-19T05:51:24.131Z,97465.28
2023-01-19T05:53:50.864Z,97465.59
2023-01-19T05:56:17.936Z,97461.47
2023-01-19T05:58:44.658Z,97459.63
2023-01-19T06:01:11.772Z,97470.09
2023-01-19T06:03:39.600Z,97466.81
2023-01-19T06:06:06.992Z,97467.75
2023-01-19T06:08:33.808Z,97463.78
2023-01-19T06:11:00.899Z,97467.66
2023-01-19T06:13:27.698Z,97459.63
2023-01-19T06:15:58.927Z,97470.19
2023-01-19T06:18:25.867Z,97474.91
2023-01-19T06:20:58.571Z,97478.66
2023-01-19T06:23:26.430Z,97483.25
2023-01-19T06:25:53.480Z,97502.56
2023-01-19T06:28:20.259Z,97508.63
2023-01-19T06:30:50.924Z,97518.78
2023-01-19T06:33:17.999Z,97521.22
2023-01-19T06:35:48.314Z,97510.34
2023-01-19T06:38:15.142Z,97521.97
2023-01-19T06:40:42.224Z,97522.31
2023-01-19T06:43:09.158Z,97525.84
2023-01-19T06:45:36.559Z,97531.81
2023-01-19T06:48:04.237Z,97525.72
2023-01-19T06:50:31.375Z,97534.78
2023-01-19T06:52:58.689Z,97530.97
2023-01-19T06:55:27.689Z,97537.47
2023-01-19T06:57:58.916Z,97553.16
2023-01-19T07:00:26.345Z,97555.94
2023-01-19T07:02:53.161Z,97561.03
2023-01-19T07:05:22.106Z,97559.34
2023-01-19T07:07:53.170Z,97568.22
2023-01-19T07:10:20.213Z,97568.84
2023-01-19T07:12:47.498Z,97580.47
2023-01-19T07:15:15.688Z,97579.63
2023-01-19T07:17:42.675Z,97589.22
2023-01-19T07:20:13.012Z,97596.78
2023-01-19T07:22:41.317Z,97602.91
2023-01-19T07:25:08.836Z,97609.41
2023-01-19T07:27:35.643Z,97614.41
2023-01-19T07:30:02.783Z,97613.47
2023-01-19T07:32:29.546Z,97618.16
2023-01-19T07:34:56.840Z,97613.38
2023-01-19T07:37:23.708Z,97619.75
2023-01-19T07:39:50.840Z,97621.69
2023-01-19T07:42:17.800Z,97622.00
2023-01-19T07:44:44.842Z,97606.41
2023-01-19T07:47:12.748Z,97607.88
2023-01-19T07:49:40.128Z,97606.00
2023-01-19T07:52:07.062Z,97611.53
2023-01-19T07:54:34.418Z,97621.47
2023-01-19T07:57:01.170Z,97621.91
2023-01-19T07:59:30.305Z,97617.72
2023-01-19T08:01:59.565Z,97616.03
2023-01-19T08:04:27.378Z,97618.56
2023-01-19T08:06:54.432Z,97623.06
2023-01-19T08:09:21.660Z,97629.47
2023-01-19T08:11:48.413Z,97635.34
2023-01-19T08:14:15.508Z,97639.91
2023-01-19T08:16:42.253Z,97626.81
2023-01-19T08:19:09.426Z,97622.31
2023-01-19T08:21:36.457Z,97616.66
2023-01-19T08:24:03.613Z,97615.91
2023-01-19T08:26:32.345Z,97612.16
2023-01-19T08:29:01.682Z,97617.50
2023-01-19T08:31:28.661Z,97626.25
2023-01-19T08:33:55.911Z,97628.81
2023-01-19T08:36:23.868Z,97641.75
2023-01-19T08:38:51.084Z,97635.00
2023-01-19T08:41:17.855Z,97635.97
2023-01-19T08:43:45.530Z,97639.69
2023-01-19T08:46:12.507Z,97646.53
2023-01-19T08:48:40.072Z,97664.47
2023-01-19T08:51:06.937Z,97658.28
2023-01-19T08:53:34.718Z,97652.84
2023-01-19T08:56:02.320Z,97656.13
2023-01-19T08:58:29.432Z,97649.09
2023-01-19T09:00:56.310Z,97664.25
2023-01-19T09:03:23.462Z,97669.38
2023-01-19T09:05:50.432Z,97659.69
2023-01-19T09:08:17.544Z,97671.94
2023-01-19T09:10:46.302Z,97676.53
2023-01-19T09:13:13.508Z,97679.31
2023-01-19T09:15:40.459Z,97678.22
2023-01-19T09:18:13.617Z,97677.50
2023-01-19T09:20:44.461Z,97681.66
2023-01-19T09:23:12.504Z,97680.38
2023-01-19T09:25:39.826Z,97681.88
2023-01-19T09:28:07.851Z,97673.19
2023-01-19T09:30:36.758Z,97663.72
2023-01-19T09:33:06.348Z,97655.19
2023-01-19T09:35:36.988Z,97656.22
2023-01-19T09:38:04.285Z,97651.94
2023-01-19T09:40:31.177Z,97650.91
2023-01-19T09:43:05.024Z,97651.41
2023-01-19T09:45:36.186Z,97659.31
2023-01-19T09:48:16.031Z,97662.41
2023-01-19T09:50:47.455Z,97657.06
2023-01-19T09:53:17.910Z,97651.94
2023-01-19T09:55:44.794Z,97666.59
2023-01-19T09:58:16.469Z,97670.09
2023-01-19T10:00:44.643Z,97662.84
2023-01-19T10:03:15.677Z,97663.19
2023-01-19T10:05:49.520Z,97663.19
2023-01-19T10:08:18.623Z,97653.25
2023-01-19T10:10:53.259Z,97647.16
2023-01-19T10:13:39.047Z,97640.94
2023-01-19T10:16:33.965Z,97648.84
2023-01-19T10:19:03.194Z,97640.53
2023-01-19T10:21:33.750Z,97644.03
2023-01-19T10:24:20.551Z,97647.91
2023-01-19T10:26:52.548Z,97653.75
2023-01-19T10:29:42.257Z,97645.84
2023-01-19T10:32:17.073Z,97643.19
2023-01-19T10:34:44.256Z,97636.13
2023-01-19T10:37:31.880Z,97636.66
2023-01-19T10:40:19.925Z,97634.09
2023-01-19T10:42:46.901Z,97627.91
2023-01-19T10:45:24.528Z,97618.22
2023-01-19T10:47:52.802Z,97623.31
2023-01-19T10:50:30.797Z,97629.50
2023-01-19T10:52:59.617Z,97629.31
2023-01-19T10:55:34.254Z,97627.81
2023-01-19T10:58:01.460Z,97625.03
2023-01-19T11:00:30.030Z,97625.88
2023-01-19T11:02:56.916Z,97623.31
2023-01-19T11:05:28.702Z,97627.47
2023-01-19T11:07:56.303Z,97624.91
2023-01-19T11:10:25.005Z,97619.69
2023-01-19T11:13:12.545Z,97613.03
2023-01-19T11:15:49.159Z,97608.31
2023-01-19T11:18:35.994Z,97610.34
2023-01-19T11:21:14.009Z,97607.69
2023-01-19T11:23:51.265Z,97607.47
2023-01-19T11:26:25.481Z,97609.91
2023-01-19T11:28:54.638Z,97611.22
2023-01-19T11:31:33.199Z,97612.59
2023-01-19T11:34:05.103Z,97619.88
2023-01-19T11:36:34.410Z,97616.09
2023-01-19T11:39:15.931Z,97613.22
2023-01-19T11:41:43.548Z,97601.56
2023-01-19T11:44:29.205Z,97613.22
2023-01-19T11:47:01.179Z,97614.81
2023-01-19T11:49:46.680Z,97605.09
2023-01-19T11:52:43.923Z,97618.22
2023-01-19T11:55:17.628Z,97602.94
2023-01-19T11:57:49.260Z,97620.50
2023-01-19T12:00:36.490Z,97626.56
2023-01-19T12:03:14.480Z,97610.84
2023-01-19T12:05:42.432Z,97613.00
2023-01-19T12:08:40.847Z,97621.41
2023-01-19T12:11:08.785Z,97620.78
2023-01-19T12:13:35.929Z,97614.47
2023-01-19T12:16:12.209Z,97623.47
2023-01-19T12:18:45.097Z,97625.16
2023-01-19T12:21:12.219Z,97616.69
2023-01-19T12:23:54.670Z,97621.97
2023-01-19T12:26:36.865Z,97616.19
2023-01-19T12:29:24.269Z,97614.13
2023-01-19T12:32:21.951Z,97612.44
2023-01-19T12:34:49.901Z,97605.06
2023-01-19T12:37:36.274Z,97603.94
2023-01-19T12:40:22.045Z,97619.25
2023-01-19T12:43:01.829Z,97616.81
2023-01-19T12:45:33.059Z,97615.25
2023-01-19T12:47:59.887Z,97611.53
2023-01-19T12:50:29.297Z,97621.47
2023-01-19T12:52:58.462Z,97610.78
2023-01-19T12:55:25.659Z,97616.97
2023-01-19T12:58:07.743Z,97621.59
2023-01-19T13:00:38.925Z,97625.84
2023-01-19T13:03:17.966Z,97635.34
2023-01-19T13:05:45.008Z,97634.63
2023-01-19T13:08:12.631Z,97636.22
2023-01-19T13:11:09.688Z,97645.00
2023-01-19T13:13:37.172Z,97645.84
2023-01-19T13:16:19.805Z,97643.81
2023-01-19T13:18:53.431Z,97642.13
2023-01-19T13:21:34.155Z,97642.97
2023-01-19T13:24:05.216Z,97650.97
2023-01-19T13:26:33.884Z,97657.06
2023-01-19T13:29:15.823Z,97660.81
2023-01-19T13:31:44.643Z,97662.50
2023-01-19T13:34:16.958Z,97669.16
2023-01-19T13:36:45.574Z,97669.56
2023-01-19T13:39:17.682Z,97676.50
2023-01-19T13:41:45.595Z,97677.59
2023-01-19T13:44:19.294Z,97682.94
2023-01-19T13:46:47.093Z,97681.09
2023-01-19T13:49:19.996Z,97684.97
2023-01-19T13:52:03.936Z,97684.72
2023-01-19T13:54:30.747Z,97688.06
2023-01-19T13:56:57.809Z,97696.06
2023-01-19T13:59:24.550Z,97691.16
2023-01-19T14:01:54.252Z,97696.50
2023-01-19T14:04:32.194Z,97702.91
2023-01-19T14:07:04.423Z,97699.28
2023-01-19T14:09:31.308Z,97699.41
2023-01-19T14:12:11.893Z,97699.81
2023-01-19T14:14:38.718Z,97690.22
2023-01-19T14:17:17.880Z,97693.94
2023-01-19T14:19:48.104Z,97695.88
2023-01-19T14:22:15.316Z,97694.34
2023-01-19T14:24:42.123Z,97697.34
2023-01-19T14:27:20.507Z,97702.91
2023-01-19T14:29:50.002Z,97703.78
2023-01-19T14:32:18.178Z,97704.41
2023-01-19T14:34:46.883Z,97700.75
2023-01-19T14:37:21.194Z,97711.59
2023-01-19T14:40:01.301Z,97710.50
2023-01-19T14:42:47.867Z,97704.81
2023-01-19T14:45:17.548Z,97708.56
2023-01-19T14:47:45.012Z,97708.16
2023-01-19T14:50:23.976Z,97701.97
2023-01-19T14:53:02.345Z,97705.59
2023-01-19T14:55:33.908Z,97711.03
2023-01-19T14:58:01.355Z,97716.28
2023-01-19T15:00:28.198Z,97714.59
2023-01-19T15:02:55.357Z,97719.06
2023-01-19T15:05:22.225Z,97716.28
2023-01-19T15:07:49.449Z,97722.59
2023-01-19T15:10:20.637Z,97714.47
2023-01-19T15:12:48.753Z,97719.81
2023-01-19T15:15:17.385Z,97717.25
2023-01-19T15:17:44.562Z,97718.22
2023-01-19T15:20:16.294Z,97712.75
2023-01-19T15:22:44.007Z,97711.91
2023-01-19T15:25:19.333Z,97714.69
2023-01-19T15:27:46.703Z,97718.09
2023-01-19T15:30:21.228Z,97722.59
2023-01-19T15:32:48.480Z,97721.63
2023-01-19T15:35:22.600Z,97723.66
2023-01-19T15:37:50.100Z,97726.22
2023-01-19T15:40:17.689Z,97727.22
2023-01-19T15:42:44.992Z,97720.56
2023-01-19T15:45:38.584Z,97726.75
2023-01-19T15:48:07.466Z,97726.34
2023-01-19T15:50:36.157Z,97726.56
2023-01-19T15:53:03.407Z,97724.94
2023-01-19T15:55:30.239Z,97730.50
2023-01-19T15:58:03.483Z,97725.91
2023-01-19T16:00:31.557Z,97729.63
2023-01-19T16:02:59.004Z,97732.19
2023-01-19T16:05:37.446Z,97729.75
2023-01-19T16:08:10.234Z,97734.13
2023-01-19T16:10:37.040Z,97738.84
2023-01-19T16:13:04.232Z,97747.06
2023-01-19T16:15:31.040Z,97741.72
2023-01-19T16:17:58.494Z,97752.00
2023-01-19T16:20:25.375Z,97750.78
2023-01-19T16:22:54.866Z,97754.88
2023-01-19T16:25:23.513Z,97758.19
2023-01-19T16:27:50.717Z,97754.88
2023-01-19T16:30:19.389Z,97753.16
2023-01-19T16:32:46.754Z,97756.03
2023-01-19T16:35:15.556Z,97760.53
2023-01-19T16:37:42.677Z,97764.31
2023-01-19T16:40:10.289Z,97762.56
2023-01-19T16:42:37.593Z,97764.03
2023-01-19T16:45:04.655Z,97764.38
2023-01-19T16:47:31.793Z,97771.84
2023-01-19T16:49:58.561Z,97773.06
2023-01-19T16:52:25.683Z,97774.97
2023-01-19T16:54:54.739Z,97773.06
2023-01-19T16:57:21.840Z,97776.88
2023-01-19T16:59:50.583Z,97774.22
2023-01-19T17:02:18.065Z,97783.00
2023-01-19T17:04:44.905Z,97783.00
2023-01-19T17:07:11.990Z,97778.59
2023-01-19T17:09:39.017Z,97771.53
2023-01-19T17:12:09.198Z,97766.19
2023-01-19T17:14:37.402Z,97768.03
2023-01-19T17:17:05.117Z,97766.44
2023-01-19T17:19:31.982Z,97776.25
2023-01-19T17:21:59.118Z,97773.47
2023-01-19T17:24:25.960Z,97776.03
2023-01-19T17:26:53.083Z,97779.91
2023-01-19T17:29:19.863Z,97782.47
2023-01-19T17:31:47.978Z,97786.94
2023-01-19T17:34:14.815Z,97790.59
2023-01-19T17:36:41.910Z,97786.41
2023-01-19T17:39:11.311Z,97789.09
2023-01-19T17:41:38.577Z,97799.75
2023-01-19T17:44:05.761Z,97797.09
2023-01-19T17:46:35.625Z,97802.13
2023-01-19T17:49:03.609Z,97804.25
2023-01-19T17:51:30.820Z,97801.69
2023-01-19T17:53:57.725Z,97797.09
2023-01-19T17:56:29.484Z,97795.41
2023-01-19T17:58:57.060Z,97803.41
2023-01-19T18:01:25.943Z,97805.31
2023-01-19T18:03:53.136Z,97800.84
2023-01-19T18:06:20.375Z,97806.41
2023-01-19T18:08:47.498Z,97808.09
2023-01-19T18:11:15.189Z,97807.03
2023-01-19T18:13:42.936Z,97813.44
2023-01-19T18:16:14.932Z,97808.97
2023-01-19T18:18:42.086Z,97816.34
2023-01-19T18:21:10.724Z,97824.34
2023-01-19T18:23:37.510Z,97830.34
2023-01-19T18:26:13.248Z,97821.13
2023-01-19T18:28:39.954Z,97818.78
2023-01-19T18:31:12.615Z,97825.94
2023-01-19T18:33:39.985Z,97826.03
2023-01-19T18:36:07.831Z,97839.41
2023-01-19T18:38:34.673Z,97848.81
2023-01-19T18:41:05.367Z,97853.28
2023-01-19T18:43:32.151Z,97848.16
2023-01-19T18:45:59.334Z,97846.34
2023-01-19T18:48:26.272Z,97854.47
2023-01-19T18:50:53.527Z,97848.28
2023-01-19T18:53:20.527Z,97852.53
2023-01-19T18:55:56.032Z,97854.78
2023-01-19T18:58:23.019Z,97851.91
2023-01-19T19:00:50.457Z,97856.28
2023-01-19T19:03:17.376Z,97859.91
2023-01-19T19:05:44.516Z,97868.03
2023-01-19T19:08:11.416Z,97870.50
2023-01-19T19:10:40.463Z,97874.84
2023-01-19T19:13:07.807Z,97883.63
2023-01-19T19:15:34.928Z,97890.78
2023-01-19T19:18:01.787Z,97891.00
2023-01-19T19:20:28.960Z,97885.53
2023-01-19T19:22:56.001Z,97895.38
2023-01-19T19:25:23.287Z,97896.34
2023-01-19T19:27:51.434Z,97903.50
2023-01-19T19:30:19.784Z,97907.44
2023-01-19T19:32:59.983Z,97916.09
2023-01-19T19:35:27.132Z,97906.25
2023-01-19T19:37:57.496Z,97903.28
2023-01-19T19:40:25.715Z,97906.25
2023-01-19T19:42:52.545Z,97905.22
2023-01-19T19:45:19.611Z,97909.72
2023-01-19T19:47:46.443Z,97907.03
2023-01-19T19:50:14.233Z,97913.22
2023-01-19T19:52:41.547Z,97914.16
2023-01-19T19:55:09.634Z,97907.78
2023-01-19T19:57:36.569Z,97905.22
2023-01-19T20:00:05.292Z,97911.59
2023-01-19T20:02:32.480Z,97912.47
2023-01-19T20:04:59.766Z,97912.38
2023-01-19T20:07:26.584Z,97914.06
2023-01-19T20:09:55.194Z,97910.75
2023-01-19T20:12:22.228Z,97921.25
2023-01-19T20:14:49.482Z,97923.91
2023-01-19T20:17:16.317Z,97927.63
2023-01-19T20:19:45.642Z,97938.41
2023-01-19T20:22:12.484Z,97932.75
2023-01-19T20:24:39.640Z,97940.88
2023-01-19T20:27:06.419Z,97942.59
2023-01-19T20:29:33.586Z,97946.31
2023-01-19T20:32:00.694Z,97947.28
2023-01-19T20:34:32.109Z,97949.09
2023-01-19T20:37:00.748Z,97956.34
2023-01-19T20:39:30.029Z,97952.63
2023-01-19T20:41:56.951Z,97957.97
2023-01-19T20:44:25.099Z,97966.84
2023-01-19T20:46:52.440Z,97966.00
2023-01-19T20:49:19.681Z,97966.75
2023-01-19T20:51:46.996Z,97973.13
2023-01-19T20:54:16.359Z,97973.22
2023-01-19T20:56:43.189Z,97981.91
2023-01-19T20:59:10.732Z,97975.06
2023-01-19T21:01:37.750Z,97980.38
2023-01-19T21:04:05.128Z,97988.31
2023-01-19T21:06:32.002Z,97977.41
2023-01-19T21:08:59.124Z,97977.53
2023-01-19T21:11:26.149Z,97987.56
2023-01-19T21:13:56.156Z,97984.34
2023-01-19T21:16:24.380Z,97986.47
2023-01-19T21:18:51.641Z,97979.53
2023-01-19T21:21:29.762Z,97987.56
2023-01-19T21:23:57.615Z,97991.91
2023-01-19T21:26:24.407Z,97984.88
2023-01-19T21:28:51.590Z,97980.59
2023-01-19T21:31:18.573Z,97986.47
2023-01-19T21:33:45.902Z,97989.06
2023-01-19T21:36:12.878Z,97983.06
2023-01-19T21:38:39.974Z,97990.31
2023-01-19T21:41:08.101Z,97987.56
2023-01-19T21:43:36.363Z,97989.16
2023-01-19T21:46:11.145Z,98002.59
2023-01-19T21:48:38.372Z,98003.56
2023-01-19T21:51:05.281Z,98005.06
2023-01-19T21:53:32.442Z,98007.84
2023-01-19T21:56:00.355Z,98012.63
2023-01-19T21:58:27.647Z,98017.03
2023-01-19T22:01:06.028Z,98021.44
2023-01-19T22:03:33.378Z,98023.31
2023-01-19T22:06:10.762Z,98029.53
2023-01-19T22:08:38.153Z,98028.75
2023-01-19T22:11:09.452Z,98023.31
2023-01-19T22:13:38.615Z,98027.06
2023-01-19T22:16:10.436Z,98024.38
2023-01-19T22:18:38.477Z,98025.78
2023-01-19T22:21:09.635Z,98027.81
2023-01-19T22:23:36.804Z,98034.97
2023-01-19T22:26:04.369Z,98038.69
2023-01-19T22:28:31.684Z,98040.59
2023-01-19T22:31:09.220Z,98043.19
2023-01-19T22:33:36.525Z,98042.09
2023-01-19T22:36:10.219Z,98045.66
2023-01-19T22:38:39.797Z,98042.97
2023-01-19T22:41:19.944Z,98037.00
2023-01-19T22:43:47.982Z,98044.03
2023-01-19T22:46:21.814Z,98040.59
2023-01-19T22:48:49.126Z,98022.88
2023-01-19T22:51:16.384Z,98023.50
2023-01-19T22:53:43.624Z,98030.69
2023-01-19T22:56:17.842Z,98022.75
2023-01-19T22:58:45.152Z,98026.50
2023-01-19T23:01:17.023Z,98025.53
2023-01-19T23:03:44.318Z,98036.88
2023-01-19T23:06:16.068Z,98038.13
2023-01-19T23:08:43.416Z,98047.88
2023-01-19T23:11:12.257Z,98040.59
2023-01-19T23:13:39.356Z,98045.19
2023-01-19T23:16:06.634Z,98050.63
2023-01-19T23:18:33.715Z,98051.47
2023-01-19T23:21:11.835Z,98048.16
2023-01-19T23:23:38.981Z,98059.78
2023-01-19T23:26:07.942Z,98065.13
2023-01-19T23:28:36.656Z,98064.72
2023-01-19T23:31:23.693Z,98072.94
2023-01-19T23:34:07.392Z,98075.91
2023-01-19T23:36:35.749Z,98080.19
2023-01-19T23:39:04.944Z,98074.84
2023-01-19T23:41:33.194Z,98081.22
2023-01-19T23:44:00.608Z,98082.69
2023-01-19T23:46:27.785Z,98076.78
2023-01-19T23:48:54.920Z,98090.31
2023-01-19T23:51:26.185Z,98090.50
2023-01-19T23:53:53.494Z,98087.94
2023-01-19T23:56:22.069Z,98080.69
2023-01-19T23:58:56.063Z,98087.84
